createdAt,value
2018-03-16T00:01:02.040Z,100324.33
2018-03-16T00:03:29.548Z,100314.75
2018-03-16T00:05:57.077Z,100316.17
2018-03-16T00:08:24.587Z,100316.84
2018-03-16T00:10:52.557Z,100315.33
2018-03-16T00:13:20.046Z,100322.34
2018-03-16T00:15:47.548Z,100321.80
2018-03-16T00:18:15.445Z,100324.19
2018-03-16T00:20:42.951Z,100325.77
2018-03-16T00:23:10.482Z,100311.47
2018-03-16T00:25:37.993Z,100310.28
2018-03-16T00:28:05.524Z,100309.31
2018-03-16T00:30:33.018Z,100307.04
2018-03-16T00:33:00.566Z,100309.64
2018-03-16T00:35:28.076Z,100310.38
2018-03-16T00:37:55.928Z,100301.86
2018-03-16T00:40:23.443Z,100302.45
2018-03-16T00:42:51.249Z,100293.91
2018-03-16T00:45:18.755Z,100289.31
2018-03-16T00:47:46.572Z,100290.22
2018-03-16T00:50:14.083Z,100290.98
2018-03-16T00:52:41.895Z,100288.43
2018-03-16T00:55:09.424Z,100295.55
2018-03-16T00:57:36.963Z,100292.80
2018-03-16T01:00:04.520Z,100295.53
2018-03-16T01:02:32.058Z,100296.02
2018-03-16T01:04:59.557Z,100295.74
2018-03-16T01:07:27.104Z,100282.21
2018-03-16T01:09:54.928Z,100285.75
2018-03-16T01:12:22.521Z,100281.37
2018-03-16T01:14:50.040Z,100285.45
2018-03-16T01:17:17.631Z,100282.70
2018-03-16T01:19:45.172Z,100281.63
2018-03-16T01:22:12.751Z,100281.63
2018-03-16T01:24:40.316Z,100282.31
2018-03-16T01:27:07.855Z,100290.77
2018-03-16T01:29:35.411Z,100294.62
2018-03-16T01:32:03.179Z,100291.11
2018-03-16T01:34:30.687Z,100299.55
2018-03-16T01:36:58.509Z,100296.89
2018-03-16T01:39:26.027Z,100296.06
2018-03-16T01:41:54.322Z,100296.42
2018-03-16T01:44:21.810Z,100295.50
2018-03-16T01:46:49.403Z,100310.41
2018-03-16T01:49:16.999Z,100295.50
2018-03-16T01:51:44.761Z,100297.84
2018-03-16T01:54:12.295Z,100292.60
2018-03-16T01:56:39.807Z,100291.78
2018-03-16T01:59:07.323Z,100288.54
2018-03-16T02:01:34.823Z,100291.84
2018-03-16T02:04:02.356Z,100292.91
2018-03-16T02:06:29.889Z,100297.98
2018-03-16T02:08:57.412Z,100309.97
2018-03-16T02:11:24.927Z,100307.83
2018-03-16T02:13:52.836Z,100311.91
2018-03-16T02:16:20.383Z,100309.56
2018-03-16T02:18:48.200Z,100308.71
2018-03-16T02:21:15.702Z,100309.81
2018-03-16T02:23:43.244Z,100304.14
2018-03-16T02:26:10.811Z,100306.02
2018-03-16T02:28:38.330Z,100294.00
2018-03-16T02:31:06.033Z,100297.91
2018-03-16T02:33:33.585Z,100296.17
2018-03-16T02:36:01.070Z,100291.31
2018-03-16T02:38:28.653Z,100290.78
2018-03-16T02:40:56.424Z,100295.48
2018-03-16T02:43:23.926Z,100287.65
2018-03-16T02:45:51.458Z,100292.10
2018-03-16T02:48:19.002Z,100288.02
2018-03-16T02:50:46.519Z,100289.39
2018-03-16T02:53:14.167Z,100284.27
2018-03-16T02:55:41.681Z,100282.24
2018-03-16T02:58:09.565Z,100278.23
2018-03-16T03:00:37.104Z,100290.70
2018-03-16T03:03:04.624Z,100280.67
2018-03-16T03:05:32.137Z,100288.02
2018-03-16T03:07:59.658Z,100275.82
2018-03-16T03:10:27.157Z,100281.34
2018-03-16T03:12:54.674Z,100287.13
2018-03-16T03:15:22.210Z,100297.09
2018-03-16T03:17:49.731Z,100302.36
2018-03-16T03:20:17.224Z,100300.70
2018-03-16T03:22:44.764Z,100300.97
2018-03-16T03:25:12.276Z,100302.17
2018-03-16T03:27:39.972Z,100306.23
2018-03-16T03:30:07.532Z,100317.28
2018-03-16T03:32:35.072Z,100313.52
2018-03-16T03:35:02.586Z,100310.26
2018-03-16T03:37:30.166Z,100305.70
2018-03-16T03:39:58.004Z,100305.69
2018-03-16T03:42:25.505Z,100298.33
2018-03-16T03:44:53.277Z,100298.50
2018-03-16T03:47:20.788Z,100293.02
2018-03-16T03:49:48.527Z,100283.22
2018-03-16T03:52:16.055Z,100275.54
2018-03-16T03:54:43.583Z,100275.90
2018-03-16T03:57:11.111Z,100274.37
2018-03-16T03:59:38.647Z,100279.22
2018-03-16T04:02:06.452Z,100278.94
2018-03-16T04:04:33.968Z,100282.52
2018-03-16T04:07:01.519Z,100279.98
2018-03-16T04:09:29.053Z,100271.65
2018-03-16T04:11:56.590Z,100275.94
2018-03-16T04:14:24.219Z,100281.22
2018-03-16T04:16:51.745Z,100278.92
2018-03-16T04:19:19.308Z,100282.13
2018-03-16T04:21:46.858Z,100287.38
2018-03-16T04:24:14.388Z,100276.15
2018-03-16T04:26:42.254Z,100274.63
2018-03-16T04:29:09.797Z,100274.50
2018-03-16T04:31:37.579Z,100280.04
2018-03-16T04:34:05.110Z,100273.94
2018-03-16T04:36:32.669Z,100287.93
2018-03-16T04:39:00.188Z,100282.66
2018-03-16T04:41:27.698Z,100279.33
2018-03-16T04:43:55.244Z,100288.98
2018-03-16T04:46:22.907Z,100284.73
2018-03-16T04:48:50.436Z,100276.84
2018-03-16T04:51:17.985Z,100279.05
2018-03-16T04:53:45.518Z,100282.42
2018-03-16T04:56:13.075Z,100279.69
2018-03-16T04:58:40.599Z,100271.78
2018-03-16T05:01:08.108Z,100269.06
2018-03-16T05:03:35.599Z,100273.23
2018-03-16T05:06:03.158Z,100274.37
2018-03-16T05:08:30.674Z,100271.77
2018-03-16T05:10:58.179Z,100274.63
2018-03-16T05:13:25.725Z,100265.80
2018-03-16T05:15:53.353Z,100266.44
2018-03-16T05:18:21.123Z,100277.67
2018-03-16T05:20:48.675Z,100267.88
2018-03-16T05:23:16.190Z,100270.03
2018-03-16T05:25:43.700Z,100269.84
2018-03-16T05:28:11.234Z,100266.77
2018-03-16T05:30:38.827Z,100273.02
2018-03-16T05:33:06.393Z,100271.89
2018-03-16T05:35:33.918Z,100273.77
2018-03-16T05:38:01.424Z,100276.01
2018-03-16T05:40:28.932Z,100272.58
2018-03-16T05:42:56.484Z,100275.30
2018-03-16T05:45:24.003Z,100281.66
2018-03-16T05:47:52.068Z,100284.00
2018-03-16T05:50:19.624Z,100282.47
2018-03-16T05:52:47.192Z,100281.70
2018-03-16T05:55:14.713Z,100275.89
2018-03-16T05:57:42.276Z,100289.36
2018-03-16T06:00:09.833Z,100297.55
2018-03-16T06:02:37.598Z,100283.56
2018-03-16T06:05:05.162Z,100284.84
2018-03-16T06:07:32.691Z,100287.73
2018-03-16T06:10:00.214Z,100283.30
2018-03-16T06:12:27.782Z,100288.91
2018-03-16T06:14:55.302Z,100277.69
2018-03-16T06:17:22.896Z,100285.23
2018-03-16T06:19:50.490Z,100288.81
2018-03-16T06:22:18.039Z,100284.13
2018-03-16T06:24:45.881Z,100284.97
2018-03-16T06:27:13.551Z,100290.07
2018-03-16T06:29:41.083Z,100300.76
2018-03-16T06:32:08.932Z,100298.67
2018-03-16T06:34:36.490Z,100294.91
2018-03-16T06:37:04.008Z,100296.78
2018-03-16T06:39:31.502Z,100301.78
2018-03-16T06:41:59.038Z,100299.22
2018-03-16T06:44:26.560Z,100298.80
2018-03-16T06:46:54.387Z,100302.17
2018-03-16T06:49:22.785Z,100302.69
2018-03-16T06:51:51.637Z,100306.15
2018-03-16T06:54:19.156Z,100313.41
2018-03-16T06:56:46.790Z,100311.42
2018-03-16T06:59:14.306Z,100298.13
2018-03-16T07:01:41.832Z,100297.58
2018-03-16T07:04:09.538Z,100307.11
2018-03-16T07:06:37.061Z,100300.43
2018-03-16T07:09:04.610Z,100293.43
2018-03-16T07:11:32.498Z,100308.45
2018-03-16T07:14:00.231Z,100302.05
2018-03-16T07:16:27.779Z,100309.22
2018-03-16T07:18:55.351Z,100315.13
2018-03-16T07:21:22.889Z,100314.77
2018-03-16T07:23:50.423Z,100314.91
2018-03-16T07:26:18.075Z,100310.17
2018-03-16T07:28:45.596Z,100310.86
2018-03-16T07:31:13.125Z,100315.50
2018-03-16T07:33:40.693Z,100306.66
2018-03-16T07:36:08.661Z,100324.06
2018-03-16T07:38:36.194Z,100326.91
2018-03-16T07:41:04.948Z,100327.28
2018-03-16T07:43:32.699Z,100324.41
2018-03-16T07:46:00.239Z,100324.57
2018-03-16T07:48:27.789Z,100325.36
2018-03-16T07:50:55.388Z,100320.59
2018-03-16T07:53:22.916Z,100332.12
2018-03-16T07:55:50.536Z,100324.71
2018-03-16T07:58:18.050Z,100330.58
2018-03-16T08:00:45.589Z,100334.41
2018-03-16T08:03:13.153Z,100335.16
2018-03-16T08:05:40.681Z,100332.30
2018-03-16T08:08:08.187Z,100340.08
2018-03-16T08:10:36.013Z,100330.76
2018-03-16T08:13:03.529Z,100327.52
2018-03-16T08:15:31.338Z,100329.08
2018-03-16T08:17:58.899Z,100325.17
2018-03-16T08:20:26.417Z,100325.25
2018-03-16T08:22:53.936Z,100328.52
2018-03-16T08:25:21.463Z,100318.35
2018-03-16T08:27:49.020Z,100333.72
2018-03-16T08:30:16.525Z,100335.41
2018-03-16T08:32:44.304Z,100335.03
2018-03-16T08:35:11.862Z,100342.45
2018-03-16T08:37:39.358Z,100339.95
2018-03-16T08:40:06.890Z,100339.86
2018-03-16T08:42:34.430Z,100353.98
2018-03-16T08:45:01.944Z,100361.71
2018-03-16T08:47:29.536Z,100357.36
2018-03-16T08:49:57.100Z,100355.31
2018-03-16T08:52:24.839Z,100359.56
2018-03-16T08:54:52.381Z,100353.05
2018-03-16T08:57:19.905Z,100351.48
2018-03-16T08:59:47.554Z,100354.30
2018-03-16T09:02:15.093Z,100359.16
2018-03-16T09:04:42.616Z,100357.00
2018-03-16T09:07:10.144Z,100354.02
2018-03-16T09:09:37.672Z,100362.37
2018-03-16T09:12:05.227Z,100373.78
2018-03-16T09:14:32.806Z,100359.98
2018-03-16T09:17:00.398Z,100353.89
2018-03-16T09:19:27.912Z,100359.63
2018-03-16T09:21:55.438Z,100361.80
2018-03-16T09:24:22.979Z,100362.38
2018-03-16T09:26:50.514Z,100364.42
2018-03-16T09:29:18.173Z,100369.33
2018-03-16T09:31:45.704Z,100374.52
2018-03-16T09:34:13.234Z,100375.29
2018-03-16T09:36:40.774Z,100371.70
2018-03-16T09:39:08.998Z,100369.02
2018-03-16T09:41:36.779Z,100373.92
2018-03-16T09:44:04.361Z,100377.70
2018-03-16T09:46:35.801Z,100376.59
2018-03-16T09:49:06.594Z,100374.30
2018-03-16T09:51:35.230Z,100374.70
2018-03-16T09:54:04.020Z,100373.73
2018-03-16T09:56:34.764Z,100371.90
2018-03-16T09:59:06.238Z,100371.41
2018-03-16T10:01:34.343Z,100382.94
2018-03-16T10:04:01.911Z,100374.86
2018-03-16T10:06:36.166Z,100377.32
2018-03-16T10:09:05.839Z,100367.34
2018-03-16T10:11:35.168Z,100374.01
2018-03-16T10:14:07.060Z,100377.55
2018-03-16T10:16:35.285Z,100375.05
2018-03-16T10:19:05.810Z,100368.89
2018-03-16T10:21:35.854Z,100371.81
2018-03-16T10:24:03.608Z,100376.19
2018-03-16T10:26:31.154Z,100374.04
2018-03-16T10:29:00.433Z,100371.59
2018-03-16T10:31:27.979Z,100386.66
2018-03-16T10:33:55.846Z,100378.41
2018-03-16T10:36:23.433Z,100373.97
2018-03-16T10:38:51.854Z,100395.19
2018-03-16T10:41:19.499Z,100384.00
2018-03-16T10:43:47.081Z,100385.36
2018-03-16T10:46:14.593Z,100389.14
2018-03-16T10:48:42.770Z,100379.33
2018-03-16T10:51:10.412Z,100383.65
2018-03-16T10:53:37.917Z,100384.38
2018-03-16T10:56:05.442Z,100383.50
2018-03-16T10:58:33.003Z,100375.02
2018-03-16T11:01:00.558Z,100371.34
2018-03-16T11:03:33.857Z,100373.88
2018-03-16T11:06:02.031Z,100375.00
2018-03-16T11:08:30.415Z,100370.88
2018-03-16T11:10:57.974Z,100366.92
2018-03-16T11:13:25.502Z,100381.62
2018-03-16T11:15:53.045Z,100374.99
2018-03-16T11:18:20.613Z,100372.49
2018-03-16T11:20:48.235Z,100373.79
2018-03-16T11:23:15.766Z,100373.51
2018-03-16T11:25:43.357Z,100380.45
2018-03-16T11:28:10.915Z,100367.92
2018-03-16T11:30:38.436Z,100377.26
2018-03-16T11:33:05.979Z,100366.75
2018-03-16T11:35:33.783Z,100370.99
2018-03-16T11:38:01.531Z,100374.80
2018-03-16T11:40:29.144Z,100374.26
2018-03-16T11:42:56.706Z,100374.52
2018-03-16T11:45:24.258Z,100375.83
2018-03-16T11:47:52.065Z,100385.38
2018-03-16T11:50:19.646Z,100369.22
2018-03-16T11:52:47.487Z,100378.42
2018-03-16T11:55:15.039Z,100380.95
2018-03-16T11:57:42.571Z,100377.47
2018-03-16T12:00:10.101Z,100376.45
2018-03-16T12:02:38.265Z,100373.56
2018-03-16T12:05:05.791Z,100382.75
2018-03-16T12:07:33.654Z,100382.83
2018-03-16T12:10:01.353Z,100375.00
2018-03-16T12:12:28.882Z,100375.84
2018-03-16T12:14:56.419Z,100376.55
2018-03-16T12:17:24.013Z,100369.02
2018-03-16T12:19:51.613Z,100371.04
2018-03-16T12:22:19.145Z,100366.81
2018-03-16T12:24:46.714Z,100373.20
2018-03-16T12:27:14.337Z,100377.58
2018-03-16T12:29:41.857Z,100380.21
2018-03-16T12:32:09.387Z,100382.52
2018-03-16T12:34:36.903Z,100385.63
2018-03-16T12:37:04.447Z,100376.95
2018-03-16T12:39:31.995Z,100375.68
2018-03-16T12:41:59.519Z,100379.20
2018-03-16T12:44:27.276Z,100379.20
2018-03-16T12:46:54.816Z,100369.48
2018-03-16T12:49:22.339Z,100376.11
2018-03-16T12:51:50.272Z,100380.75
2018-03-16T12:54:18.205Z,100377.83
2018-03-16T12:56:45.719Z,100381.97
2018-03-16T12:59:13.263Z,100378.08
2018-03-16T13:01:40.922Z,100386.31
2018-03-16T13:04:08.727Z,100385.86
2018-03-16T13:06:36.654Z,100385.91
2018-03-16T13:09:04.885Z,100395.27
2018-03-16T13:11:32.474Z,100398.75
2018-03-16T13:13:59.999Z,100396.75
2018-03-16T13:16:27.551Z,100402.74
2018-03-16T13:18:55.110Z,100400.67
2018-03-16T13:21:22.752Z,100399.00
2018-03-16T13:23:50.419Z,100405.58
2018-03-16T13:26:18.001Z,100398.34
2018-03-16T13:28:45.595Z,100396.53
2018-03-16T13:31:13.520Z,100399.86
2018-03-16T13:33:41.066Z,100411.27
2018-03-16T13:36:08.643Z,100408.54
2018-03-16T13:38:36.200Z,100405.34
2018-03-16T13:41:03.745Z,100407.08
2018-03-16T13:43:31.287Z,100405.31
2018-03-16T13:45:58.866Z,100414.61
2018-03-16T13:48:26.416Z,100406.78
2018-03-16T13:50:53.969Z,100408.30
2018-03-16T13:53:21.531Z,100414.19
2018-03-16T13:55:49.061Z,100413.12
2018-03-16T13:58:16.576Z,100420.34
2018-03-16T14:00:44.157Z,100423.75
2018-03-16T14:03:11.744Z,100416.81
2018-03-16T14:05:39.256Z,100421.23
2018-03-16T14:08:06.886Z,100413.20
2018-03-16T14:10:34.868Z,100420.94
2018-03-16T14:13:02.382Z,100421.73
2018-03-16T14:15:29.944Z,100427.20
2018-03-16T14:17:57.486Z,100428.97
2018-03-16T14:20:25.061Z,100426.79
2018-03-16T14:22:52.636Z,100431.08
2018-03-16T14:25:20.210Z,100434.22
2018-03-16T14:27:47.776Z,100440.19
2018-03-16T14:30:15.357Z,100436.39
2018-03-16T14:32:42.901Z,100430.48
2018-03-16T14:35:10.489Z,100428.10
2018-03-16T14:37:38.064Z,100430.79
2018-03-16T14:40:05.604Z,100434.55
2018-03-16T14:42:33.233Z,100429.33
2018-03-16T14:45:00.814Z,100438.17
2018-03-16T14:47:28.326Z,100436.13
2018-03-16T14:49:55.886Z,100436.88
2018-03-16T14:52:23.496Z,100444.83
2018-03-16T14:54:50.989Z,100439.36
2018-03-16T14:57:18.508Z,100434.45
2018-03-16T14:59:46.043Z,100443.17
2018-03-16T15:02:13.562Z,100445.38
2018-03-16T15:04:41.137Z,100451.05
2018-03-16T15:07:08.686Z,100452.37
2018-03-16T15:09:36.254Z,100457.42
2018-03-16T15:12:03.796Z,100450.19
2018-03-16T15:14:31.331Z,100449.84
2018-03-16T15:16:58.864Z,100457.67
2018-03-16T15:19:26.443Z,100449.31
2018-03-16T15:21:54.089Z,100450.75
2018-03-16T15:24:21.607Z,100460.63
2018-03-16T15:26:49.176Z,100458.70
2018-03-16T15:29:17.297Z,100459.91
2018-03-16T15:31:44.807Z,100458.30
2018-03-16T15:34:12.429Z,100457.66
2018-03-16T15:36:41.140Z,100467.09
2018-03-16T15:39:08.993Z,100467.17
2018-03-16T15:44:10.691Z,100472.53
2018-03-16T15:46:38.542Z,100471.36
2018-03-16T15:49:06.080Z,100469.78
2018-03-16T15:51:33.671Z,100463.97
2018-03-16T15:54:02.168Z,100473.64
2018-03-16T15:56:29.687Z,100473.38
2018-03-16T15:58:57.379Z,100472.42
2018-03-16T16:01:24.940Z,100488.59
2018-03-16T16:03:52.530Z,100489.55
2018-03-16T16:06:20.137Z,100486.61
2018-03-16T16:08:47.760Z,100495.78
2018-03-16T16:11:15.267Z,100506.41
2018-03-16T16:13:42.833Z,100496.25
2018-03-16T16:16:10.672Z,100509.22
2018-03-16T16:18:38.255Z,100514.67
2018-03-16T16:21:05.863Z,100514.33
2018-03-16T16:23:33.696Z,100518.73
2018-03-16T16:26:01.222Z,100524.60
2018-03-16T16:28:28.843Z,100530.86
2018-03-16T16:30:56.383Z,100527.09
2018-03-16T16:33:23.895Z,100540.89
2018-03-16T16:35:51.423Z,100541.44
2018-03-16T16:38:18.991Z,100536.94
2018-03-16T16:40:46.560Z,100553.14
2018-03-16T16:43:14.122Z,100554.53
2018-03-16T16:45:41.672Z,100550.89
2018-03-16T16:48:09.190Z,100555.73
2018-03-16T16:50:36.733Z,100566.78
2018-03-16T16:53:04.274Z,100563.31
2018-03-16T16:55:31.901Z,100571.75
2018-03-16T16:57:59.437Z,100575.38
2018-03-16T17:00:26.965Z,100587.66
2018-03-16T17:02:54.488Z,100588.98
2018-03-16T17:05:22.038Z,100577.84
2018-03-16T17:07:49.559Z,100587.32
2018-03-16T17:10:17.082Z,100594.03
2018-03-16T17:12:45.164Z,100598.00
2018-03-16T17:15:12.681Z,100607.50
2018-03-16T17:17:40.233Z,100600.10
2018-03-16T17:20:07.896Z,100611.20
2018-03-16T17:22:35.430Z,100617.41
2018-03-16T17:25:03.000Z,100613.36
2018-03-16T17:27:32.020Z,100627.27
2018-03-16T17:29:59.555Z,100624.45
2018-03-16T17:32:27.108Z,100628.27
2018-03-16T17:34:54.663Z,100629.36
2018-03-16T17:37:22.468Z,100635.56
2018-03-16T17:39:50.000Z,100648.05
2018-03-16T17:42:17.563Z,100650.31
2018-03-16T17:44:45.103Z,100656.16
2018-03-16T17:47:12.633Z,100652.41
2018-03-16T17:49:40.476Z,100659.94
2018-03-16T17:52:08.341Z,100667.50
2018-03-16T17:54:36.113Z,100669.34
2018-03-16T17:57:03.664Z,100671.58
2018-03-16T17:59:31.203Z,100680.75
2018-03-16T18:01:59.098Z,100683.17
2018-03-16T18:04:26.700Z,100680.33
2018-03-16T18:06:54.214Z,100686.11
2018-03-16T18:09:21.738Z,100684.27
2018-03-16T18:11:49.455Z,100693.78
2018-03-16T18:14:17.269Z,100693.72
2018-03-16T18:16:44.811Z,100692.05
2018-03-16T18:19:12.403Z,100699.60
2018-03-16T18:21:39.922Z,100705.01
2018-03-16T18:24:07.441Z,100700.83
2018-03-16T18:26:34.968Z,100710.32
2018-03-16T18:29:02.763Z,100711.41
2018-03-16T18:31:30.291Z,100713.09
2018-03-16T18:33:57.867Z,100720.23
2018-03-16T18:36:25.395Z,100721.09
2018-03-16T18:38:52.937Z,100717.77
2018-03-16T18:41:20.521Z,100717.47
2018-03-16T18:43:48.058Z,100717.98
2018-03-16T18:46:15.605Z,100724.86
2018-03-16T18:48:43.152Z,100730.84
2018-03-16T18:51:10.646Z,100723.14
2018-03-16T18:53:38.198Z,100724.92
2018-03-16T18:56:05.748Z,100730.69
2018-03-16T18:58:33.260Z,100730.86
2018-03-16T19:01:00.803Z,100744.92
2018-03-16T19:03:28.358Z,100748.73
2018-03-16T19:05:55.890Z,100740.83
2018-03-16T19:08:23.424Z,100751.73
2018-03-16T19:10:51.247Z,100752.74
2018-03-16T19:13:18.878Z,100750.03
2018-03-16T19:15:46.393Z,100759.81
2018-03-16T19:18:13.958Z,100766.22
2018-03-16T19:20:41.483Z,100762.44
2018-03-16T19:23:08.992Z,100770.00
2018-03-16T19:25:36.539Z,100772.08
2018-03-16T19:28:04.106Z,100774.71
2018-03-16T19:30:31.657Z,100765.53
2018-03-16T19:32:59.261Z,100768.96
2018-03-16T19:35:26.985Z,100771.69
2018-03-16T19:37:54.566Z,100772.14
2018-03-16T19:40:22.125Z,100774.77
2018-03-16T19:42:49.639Z,100771.87
2018-03-16T19:45:17.149Z,100767.78
2018-03-16T19:47:44.809Z,100757.75
2018-03-16T19:50:12.333Z,100770.82
2018-03-16T19:52:39.838Z,100775.59
2018-03-16T19:55:07.385Z,100780.59
2018-03-16T19:57:35.164Z,100770.82
2018-03-16T20:00:02.711Z,100768.02
2018-03-16T20:02:30.342Z,100771.03
2018-03-16T20:04:57.865Z,100769.84
2018-03-16T20:07:25.391Z,100777.33
2018-03-16T20:09:52.962Z,100781.39
2018-03-16T20:12:20.486Z,100781.84
2018-03-16T20:14:48.239Z,100781.66
2018-03-16T20:17:15.856Z,100793.00
2018-03-16T20:19:44.045Z,100789.95
2018-03-16T20:22:11.826Z,100786.23
2018-03-16T20:24:39.357Z,100792.03
2018-03-16T20:27:06.885Z,100792.79
2018-03-16T20:29:34.412Z,100795.37
2018-03-16T20:32:02.750Z,100784.16
2018-03-16T20:34:30.273Z,100779.02
2018-03-16T20:36:58.998Z,100786.00
2018-03-16T20:39:26.645Z,100794.70
2018-03-16T20:41:54.404Z,100787.78
2018-03-16T20:44:22.820Z,100796.05
2018-03-16T20:46:51.233Z,100797.02
2018-03-16T20:49:19.059Z,100792.95
2018-03-16T20:51:46.925Z,100793.28
2018-03-16T20:54:14.527Z,100790.33
2018-03-16T20:56:42.403Z,100794.52
2018-03-16T20:59:10.152Z,100796.20
2018-03-16T21:01:38.099Z,100800.63
2018-03-16T21:04:05.636Z,100814.83
2018-03-16T21:06:33.162Z,100807.16
2018-03-16T21:09:00.726Z,100809.02
2018-03-16T21:11:28.360Z,100814.80
2018-03-16T21:13:56.054Z,100820.31
2018-03-16T21:16:23.656Z,100820.83
2018-03-16T21:18:51.195Z,100829.00
2018-03-16T21:21:18.980Z,100816.81
2018-03-16T21:23:46.571Z,100827.13
2018-03-16T21:26:14.211Z,100832.55
2018-03-16T21:28:41.716Z,100848.43
2018-03-16T21:31:09.294Z,100838.94
2018-03-16T21:33:36.812Z,100846.59
2018-03-16T21:36:04.657Z,100838.77
2018-03-16T21:38:32.343Z,100846.91
2018-03-16T21:40:59.873Z,100844.64
2018-03-16T21:43:27.675Z,100848.90
2018-03-16T21:45:55.328Z,100851.57
2018-03-16T21:48:22.964Z,100860.65
2018-03-16T21:50:50.485Z,100860.48
2018-03-16T21:53:18.061Z,100856.73
2018-03-16T21:55:45.635Z,100865.43
2018-03-16T21:58:13.168Z,100860.48
2018-03-16T22:00:40.707Z,100861.27
2018-03-16T22:03:08.220Z,100867.50
2018-03-16T22:05:35.738Z,100858.85
2018-03-16T22:08:03.323Z,100862.95
2018-03-16T22:10:30.915Z,100877.75
2018-03-16T22:12:58.476Z,100863.34
2018-03-16T22:15:26.024Z,100864.65
2018-03-16T22:17:53.594Z,100864.16
2018-03-16T22:20:21.119Z,100863.12
2018-03-16T22:22:48.677Z,100858.23
2018-03-16T22:25:16.493Z,100859.65
2018-03-16T22:27:44.021Z,100868.69
2018-03-16T22:30:11.590Z,100861.70
2018-03-16T22:32:39.117Z,100863.31
2018-03-16T22:35:06.622Z,100869.49
2018-03-16T22:37:34.174Z,100879.51
2018-03-16T22:40:01.710Z,100879.46
2018-03-16T22:42:29.229Z,100876.70
2018-03-16T22:44:56.772Z,100891.06
2018-03-16T22:47:24.312Z,100884.32
2018-03-16T22:49:51.836Z,100891.02
2018-03-16T22:52:19.379Z,100886.00
2018-03-16T22:54:46.940Z,100885.63
2018-03-16T22:57:14.514Z,100896.25
2018-03-16T22:59:42.079Z,100891.06
2018-03-16T23:02:09.605Z,100897.20
2018-03-16T23:04:37.368Z,100898.05
2018-03-16T23:07:04.934Z,100894.52
2018-03-16T23:09:32.476Z,100898.25
2018-03-16T23:11:59.999Z,100900.09
2018-03-16T23:14:27.558Z,100913.01
2018-03-16T23:16:55.087Z,100905.00
2018-03-16T23:19:22.617Z,100908.77
2018-03-16T23:21:50.198Z,100902.94
2018-03-16T23:24:17.733Z,100902.02
2018-03-16T23:26:45.330Z,100913.47
2018-03-16T23:29:12.905Z,100910.30
2018-03-16T23:31:40.415Z,100910.33
2018-03-16T23:34:07.927Z,100913.46
2018-03-16T23:36:35.519Z,100915.36
2018-03-16T23:39:03.078Z,100913.16
2018-03-16T23:41:30.700Z,100921.05
2018-03-16T23:43:58.265Z,100906.95
2018-03-16T23:46:25.766Z,100920.27
2018-03-16T23:48:53.278Z,100925.98
2018-03-16T23:51:20.839Z,100929.31
2018-03-16T23:53:48.351Z,100930.12
2018-03-16T23:56:15.857Z,100933.69
2018-03-16T23:58:43.393Z,100934.95
